createdAt,value
2018-02-18T00:00:17.792Z,10.73
2018-02-18T00:02:51.477Z,11.88
2018-02-18T00:05:21.865Z,11.85
2018-02-18T00:07:53.498Z,13.77
2018-02-18T00:10:24.029Z,11.80
2018-02-18T00:12:54.872Z,12.63
2018-02-18T00:15:25.230Z,10.82
2018-02-18T00:17:55.799Z,11.50
2018-02-18T00:20:28.108Z,11.75
2018-02-18T00:22:59.173Z,11.15
2018-02-18T00:25:29.485Z,10.50
2018-02-18T00:28:00.100Z,11.27
2018-02-18T00:30:30.273Z,10.15
2018-02-18T00:33:00.415Z,10.85
2018-02-18T00:35:32.985Z,10.05
2018-02-18T00:38:04.120Z,10.57
2018-02-18T00:40:35.492Z,10.05
2018-02-18T00:43:05.720Z,11.57
2018-02-18T00:45:36.112Z,10.75
2018-02-18T00:48:06.708Z,10.25
2018-02-18T00:50:37.163Z,11.05
2018-02-18T00:53:11.291Z,10.60
2018-02-18T00:55:42.377Z,10.40
2018-02-18T00:58:12.787Z,10.73
2018-02-18T01:00:43.323Z,11.23
2018-02-18T01:03:13.810Z,10.65
2018-02-18T01:05:44.763Z,10.20
2018-02-18T01:08:17.284Z,11.25
2018-02-18T01:10:48.340Z,11.18
2018-02-18T01:13:18.555Z,10.02
2018-02-18T01:15:48.947Z,10.40
2018-02-18T01:18:19.238Z,10.48
2018-02-18T01:20:51.088Z,10.05
2018-02-18T01:23:23.221Z,10.15
2018-02-18T01:25:53.818Z,9.55
2018-02-18T01:28:25.192Z,9.93
2018-02-18T01:30:55.513Z,10.57
2018-02-18T01:33:26.472Z,9.50
2018-02-18T01:35:57.105Z,10.02
2018-02-18T01:38:27.405Z,9.50
2018-02-18T01:40:57.847Z,10.02
2018-02-18T01:43:28.554Z,9.75
2018-02-18T01:45:58.768Z,9.88
2018-02-18T01:48:30.234Z,10.07
2018-02-18T01:51:00.525Z,10.25
2018-02-18T01:53:30.974Z,9.65
2018-02-18T01:56:01.541Z,9.90
2018-02-18T01:58:32.748Z,10.63
2018-02-18T02:01:03.759Z,9.68
2018-02-18T02:03:34.538Z,9.93
2018-02-18T02:06:04.776Z,9.13
2018-02-18T02:08:35.039Z,9.95
2018-02-18T02:11:05.993Z,9.10
2018-02-18T02:13:37.203Z,9.18
2018-02-18T02:16:07.553Z,9.25
2018-02-18T02:18:38.647Z,10.20
2018-02-18T02:21:08.966Z,11.10
2018-02-18T02:23:39.644Z,10.18
2018-02-18T02:26:10.078Z,10.35
2018-02-18T02:28:40.354Z,9.80
2018-02-18T02:31:11.037Z,10.95
2018-02-18T02:33:41.377Z,9.15
2018-02-18T02:36:12.472Z,9.73
2018-02-18T02:38:43.340Z,10.13
2018-02-18T02:41:14.337Z,10.18
2018-02-18T02:43:44.633Z,9.52
2018-02-18T02:46:16.000Z,10.07
2018-02-18T02:48:46.212Z,9.57
2018-02-18T02:51:16.408Z,9.30
2018-02-18T02:53:46.612Z,10.65
2018-02-18T02:56:16.923Z,10.13
2018-02-18T02:58:48.690Z,10.10
2018-02-18T03:01:19.027Z,9.88
2018-02-18T03:03:49.348Z,9.27
2018-02-18T03:06:20.043Z,9.30
2018-02-18T03:08:50.399Z,9.07
2018-02-18T03:11:20.676Z,9.90
2018-02-18T03:13:51.033Z,9.98
2018-02-18T03:16:21.339Z,10.82
2018-02-18T03:18:51.948Z,10.30
2018-02-18T03:21:22.056Z,9.20
2018-02-18T03:23:52.208Z,9.65
2018-02-18T03:26:22.430Z,10.00
2018-02-18T03:28:53.461Z,10.32
2018-02-18T03:31:24.390Z,8.77
2018-02-18T03:33:54.652Z,10.63
2018-02-18T03:36:24.954Z,9.20
2018-02-18T03:38:56.000Z,9.82
2018-02-18T03:41:26.252Z,9.80
2018-02-18T03:43:56.572Z,10.65
2018-02-18T03:46:28.158Z,10.23
2018-02-18T03:48:58.443Z,10.25
2018-02-18T03:51:28.745Z,9.80
2018-02-18T03:53:59.620Z,10.55
2018-02-18T03:56:29.939Z,9.95
2018-02-18T03:59:00.296Z,9.95
2018-02-18T04:01:30.440Z,10.27
2018-02-18T04:04:00.832Z,9.25
2018-02-18T04:06:32.079Z,9.77
2018-02-18T04:09:03.292Z,10.40
2018-02-18T04:11:33.551Z,10.57
2018-02-18T04:14:04.936Z,9.93
2018-02-18T04:16:35.319Z,10.52
2018-02-18T04:19:06.405Z,9.88
2018-02-18T04:21:36.686Z,10.27
2018-02-18T04:24:06.956Z,10.95
2018-02-18T04:26:37.595Z,10.77
2018-02-18T04:29:08.628Z,10.30
2018-02-18T04:31:38.927Z,10.82
2018-02-18T04:34:09.722Z,10.82
2018-02-18T04:36:39.911Z,10.45
2018-02-18T04:39:10.917Z,10.73
2018-02-18T04:41:41.582Z,11.38
2018-02-18T04:44:12.653Z,10.18
2018-02-18T04:46:43.036Z,10.65
2018-02-18T04:49:13.585Z,11.38
2018-02-18T04:51:43.845Z,10.63
2018-02-18T04:54:14.022Z,9.80
2018-02-18T04:56:44.700Z,9.77
2018-02-18T04:59:14.924Z,11.18
2018-02-18T05:01:45.013Z,10.85
2018-02-18T05:04:15.416Z,9.45
2018-02-18T05:06:45.563Z,10.50
2018-02-18T05:09:15.958Z,9.57
2018-02-18T05:11:46.283Z,10.57
2018-02-18T05:14:20.119Z,12.32
2018-02-18T05:16:51.290Z,11.10
2018-02-18T05:19:22.354Z,10.18
2018-02-18T05:21:53.359Z,10.38
2018-02-18T05:24:24.903Z,10.55
2018-02-18T05:26:55.326Z,10.40
2018-02-18T05:29:25.570Z,10.25
2018-02-18T05:31:55.756Z,11.23
2018-02-18T05:34:26.000Z,11.10
2018-02-18T05:36:56.856Z,10.85
2018-02-18T05:39:28.065Z,10.73
2018-02-18T05:41:58.552Z,10.15
2018-02-18T05:44:29.170Z,10.93
2018-02-18T05:47:00.519Z,10.60
2018-02-18T05:49:31.640Z,11.07
2018-02-18T05:52:02.220Z,10.95
2018-02-18T05:54:32.368Z,11.68
2018-02-18T05:57:02.807Z,11.80
2018-02-18T05:59:33.243Z,11.30
2018-02-18T06:02:03.532Z,11.93
2018-02-18T06:04:33.934Z,11.65
2018-02-18T06:07:04.229Z,11.05
2018-02-18T06:09:34.577Z,10.80
2018-02-18T06:12:04.817Z,10.70
2018-02-18T06:14:35.670Z,10.68
2018-02-18T06:17:05.985Z,11.57
2018-02-18T06:19:36.188Z,11.85
2018-02-18T06:22:06.856Z,11.23
2018-02-18T06:24:37.086Z,11.82
2018-02-18T06:27:07.460Z,11.88
2018-02-18T06:29:37.677Z,11.23
2018-02-18T06:32:07.977Z,11.25
2018-02-18T06:34:39.580Z,12.20
2018-02-18T06:37:09.991Z,11.68
2018-02-18T06:39:42.220Z,12.55
2018-02-18T06:42:12.932Z,11.75
2018-02-18T06:44:43.206Z,11.68
2018-02-18T06:47:13.456Z,12.05
2018-02-18T06:49:43.818Z,11.40
2018-02-18T06:52:14.618Z,10.80
2018-02-18T06:54:45.268Z,11.95
2018-02-18T06:57:15.520Z,11.57
2018-02-18T06:59:45.788Z,11.70
2018-02-18T07:02:16.150Z,12.63
2018-02-18T07:04:47.271Z,11.82
2018-02-18T07:07:21.335Z,12.48
2018-02-18T07:09:52.649Z,12.15
2018-02-18T07:12:23.237Z,11.55
2018-02-18T07:14:55.101Z,11.80
2018-02-18T07:17:25.403Z,12.70
2018-02-18T07:19:56.854Z,11.23
2018-02-18T07:22:27.820Z,12.43
2018-02-18T07:24:58.189Z,12.37
2018-02-18T07:27:28.372Z,12.65
2018-02-18T07:29:59.171Z,12.57
2018-02-18T07:32:32.419Z,12.05
2018-02-18T07:35:02.850Z,12.02
2018-02-18T07:38:57.393Z,12.80
2018-02-18T07:41:29.774Z,11.65
2018-02-18T07:44:01.251Z,12.07
2018-02-18T07:46:31.729Z,12.30
2018-02-18T07:49:01.952Z,11.15
2018-02-18T07:51:33.980Z,11.48
2018-02-18T07:54:06.936Z,12.82
2018-02-18T07:56:37.306Z,11.77
2018-02-18T07:59:07.772Z,12.98
2018-02-18T08:01:38.904Z,13.38
2018-02-18T08:04:10.374Z,11.90
2018-02-18T08:06:41.259Z,12.43
2018-02-18T08:09:12.615Z,12.37
2018-02-18T08:11:43.720Z,12.82
2018-02-18T08:14:14.689Z,16.95
2018-02-18T08:16:45.003Z,16.00
2018-02-18T08:19:16.909Z,15.95
2018-02-18T08:21:59.662Z,15.10
2018-02-18T08:24:32.108Z,14.23
2018-02-18T08:27:03.308Z,13.35
2018-02-18T08:29:33.693Z,13.13
2018-02-18T08:32:07.237Z,13.57
2018-02-18T08:34:37.629Z,13.88
2018-02-18T08:37:08.526Z,13.35
2018-02-18T08:39:38.941Z,16.48
2018-02-18T08:42:09.358Z,14.57
2018-02-18T08:44:44.795Z,13.43
2018-02-18T08:47:15.058Z,12.95
2018-02-18T08:49:46.105Z,13.62
2018-02-18T08:52:17.144Z,12.10
2018-02-18T08:54:47.509Z,11.90
2018-02-18T08:57:17.822Z,10.05
2018-02-18T08:59:48.988Z,11.73
2018-02-18T09:02:19.373Z,11.57
2018-02-18T09:04:49.698Z,11.02
2018-02-18T09:07:19.981Z,10.95
2018-02-18T09:09:50.578Z,10.43
2018-02-18T09:12:20.910Z,12.00
2018-02-18T09:14:51.322Z,11.27
2018-02-18T09:17:22.125Z,11.55
2018-02-18T09:19:52.471Z,11.45
2018-02-18T09:22:23.776Z,12.15
2018-02-18T09:24:54.266Z,11.50
2018-02-18T09:27:26.021Z,10.65
2018-02-18T09:29:56.317Z,11.95
2018-02-18T09:32:26.772Z,11.23
2018-02-18T09:34:57.082Z,11.40
2018-02-18T09:40:04.151Z,12.25
2018-02-18T09:42:35.381Z,11.43
2018-02-18T09:45:06.417Z,11.27
2018-02-18T09:47:36.543Z,10.63
2018-02-18T09:50:07.991Z,11.65
2018-02-18T09:52:40.022Z,11.30
2018-02-18T09:55:10.450Z,11.25
2018-02-18T09:57:40.918Z,11.93
2018-02-18T10:00:11.370Z,10.13
2018-02-18T10:02:43.479Z,10.38
2018-02-18T10:05:14.627Z,11.02
2018-02-18T10:07:45.047Z,10.50
2018-02-18T10:10:15.789Z,11.35
2018-02-18T10:12:46.118Z,10.95
2018-02-18T10:15:19.738Z,10.77
2018-02-18T10:17:52.548Z,9.85
2018-02-18T10:20:27.350Z,9.57
2018-02-18T10:22:59.405Z,9.90
2018-02-18T10:25:30.584Z,8.65
2018-02-18T10:28:01.117Z,8.77
2018-02-18T10:30:34.703Z,8.85
2018-02-18T10:33:05.214Z,8.82
2018-02-18T10:35:37.728Z,8.55
2018-02-18T10:38:09.352Z,9.15
2018-02-18T10:40:43.292Z,8.82
2018-02-18T10:43:13.568Z,9.93
2018-02-18T10:45:48.115Z,7.93
2018-02-18T10:48:19.270Z,8.23
2018-02-18T10:50:55.649Z,7.32
2018-02-18T10:53:26.088Z,7.50
2018-02-18T10:55:57.732Z,8.32
2018-02-18T10:58:28.633Z,7.22
2018-02-18T11:00:59.240Z,8.38
2018-02-18T11:03:29.513Z,7.78
2018-02-18T11:06:02.612Z,7.55
2018-02-18T11:08:33.768Z,7.12
2018-02-18T11:11:04.649Z,7.60
2018-02-18T11:13:36.744Z,8.18
2018-02-18T11:16:11.244Z,7.80
2018-02-18T11:18:41.582Z,7.85
2018-02-18T11:21:11.939Z,10.65
2018-02-18T11:23:55.734Z,8.38
2018-02-18T11:26:26.228Z,7.60
2018-02-18T11:28:56.514Z,7.00
2018-02-18T11:31:29.036Z,7.10
2018-02-18T11:33:59.263Z,6.05
2018-02-18T11:36:30.381Z,7.40
2018-02-18T11:39:01.002Z,7.22
2018-02-18T11:41:32.312Z,7.37
2018-02-18T11:44:04.746Z,7.18
2018-02-18T11:46:47.038Z,8.25
2018-02-18T11:49:24.524Z,7.57
2018-02-18T11:51:55.600Z,7.32
2018-02-18T11:54:39.420Z,7.05
2018-02-18T11:57:15.603Z,7.80
2018-02-18T11:59:47.716Z,7.55
2018-02-18T12:02:18.012Z,7.62
2018-02-18T12:04:48.348Z,7.25
2018-02-18T12:07:19.156Z,7.20
2018-02-18T12:09:49.791Z,6.97
2018-02-18T12:12:20.103Z,6.55
2018-02-18T12:14:50.661Z,7.43
2018-02-18T12:20:09.017Z,7.07
2018-02-18T12:22:40.322Z,7.20
2018-02-18T12:25:14.830Z,8.20
2018-02-18T12:27:47.695Z,7.18
2018-02-18T12:30:19.406Z,6.78
2018-02-18T12:32:50.451Z,8.20
2018-02-18T12:35:22.252Z,7.80
2018-02-18T12:37:52.526Z,8.02
2018-02-18T12:40:25.355Z,8.50
2018-02-18T12:42:55.797Z,7.60
2018-02-18T12:45:26.226Z,7.40
2018-02-18T12:47:56.690Z,8.27
2018-02-18T12:50:28.919Z,7.90
2018-02-18T12:52:59.248Z,8.13
2018-02-18T12:55:33.284Z,8.35
2018-02-18T12:58:08.144Z,8.80
2018-02-18T13:00:38.581Z,9.17
2018-02-18T13:03:09.099Z,8.50
2018-02-18T13:05:40.746Z,8.30
2018-02-18T13:08:14.782Z,8.70
2018-02-18T13:10:47.704Z,8.93
2018-02-18T13:13:18.794Z,8.55
2018-02-18T13:15:52.140Z,9.57
2018-02-18T13:18:23.591Z,8.00
2018-02-18T13:20:55.927Z,8.23
2018-02-18T13:23:26.793Z,7.30
2018-02-18T13:25:57.049Z,8.30
2018-02-18T13:28:29.925Z,8.57
2018-02-18T13:31:14.441Z,7.00
2018-02-18T13:33:53.504Z,6.53
2018-02-18T13:36:25.629Z,7.60
2018-02-18T13:38:56.069Z,6.90
2018-02-18T13:41:26.856Z,6.70
2018-02-18T13:43:57.395Z,6.57
2018-02-18T13:46:30.111Z,7.07
2018-02-18T13:49:02.905Z,6.57
2018-02-18T13:51:33.692Z,5.90
2018-02-18T13:54:04.554Z,7.43
2018-02-18T13:56:35.517Z,5.97
2018-02-18T13:59:05.799Z,5.93
2018-02-18T14:01:36.057Z,5.57
2018-02-18T14:04:06.311Z,5.80
2018-02-18T14:06:37.720Z,6.30
2018-02-18T14:09:08.768Z,5.77
2018-02-18T14:11:39.166Z,5.80
2018-02-18T14:14:09.363Z,6.23
2018-02-18T14:16:40.681Z,6.33
2018-02-18T14:19:11.870Z,6.43
2018-02-18T14:21:42.070Z,6.37
2018-02-18T14:24:13.209Z,7.07
2018-02-18T14:26:44.523Z,6.50
2018-02-18T14:29:14.884Z,7.57
2018-02-18T14:31:45.208Z,6.40
2018-02-18T14:34:16.383Z,6.60
2018-02-18T14:36:46.822Z,6.60
2018-02-18T14:39:16.973Z,7.73
2018-02-18T14:44:01.618Z,7.40
2018-02-18T14:48:48.397Z,6.60
2018-02-18T14:54:35.726Z,6.97
2018-02-18T14:57:08.508Z,7.07
2018-02-18T14:59:39.611Z,6.70
2018-02-18T15:02:10.262Z,8.93
2018-02-18T15:04:43.491Z,8.70
2018-02-18T15:07:14.496Z,8.03
2018-02-18T15:09:46.826Z,7.37
2018-02-18T15:12:17.150Z,10.17
2018-02-18T15:14:47.514Z,8.50
2018-02-18T15:17:17.815Z,6.40
2018-02-18T15:19:48.020Z,6.40
2018-02-18T15:22:19.325Z,6.70
2018-02-18T15:24:50.371Z,6.73
2018-02-18T15:27:33.266Z,6.97
2018-02-18T15:30:05.226Z,7.23
2018-02-18T15:32:35.912Z,7.23
2018-02-18T15:35:06.253Z,8.70
2018-02-18T15:37:39.322Z,8.32
2018-02-18T15:40:11.335Z,9.90
2018-02-18T15:42:42.350Z,9.63
2018-02-18T15:45:12.616Z,10.97
2018-02-18T15:47:46.082Z,9.77
2018-02-18T15:50:16.556Z,9.20
2018-02-18T15:52:47.460Z,9.40
2018-02-18T15:55:18.851Z,10.80
2018-02-18T15:57:49.188Z,8.80
2018-02-18T16:00:21.435Z,9.55
2018-02-18T16:02:53.406Z,10.88
2018-02-18T16:05:25.389Z,9.93
2018-02-18T16:07:55.893Z,9.00
2018-02-18T16:10:27.023Z,9.13
2018-02-18T16:12:59.538Z,9.05
2018-02-18T16:15:29.765Z,8.15
2018-02-18T16:18:00.666Z,8.57
2018-02-18T16:20:32.924Z,7.57
2018-02-18T16:23:03.271Z,8.43
2018-02-18T16:25:34.998Z,9.57
2018-02-18T16:28:05.589Z,9.95
2018-02-18T16:30:35.940Z,8.77
2018-02-18T16:33:06.685Z,9.57
2018-02-18T16:35:36.905Z,8.95
2018-02-18T16:38:11.182Z,8.43
2018-02-18T16:40:42.878Z,8.73
2018-02-18T16:43:15.016Z,9.65
2018-02-18T16:45:46.236Z,8.43
2018-02-18T16:48:16.769Z,9.95
2018-02-18T16:50:47.141Z,9.43
2018-02-18T16:53:17.319Z,8.82
2018-02-18T16:55:47.570Z,9.77
2018-02-18T16:58:18.243Z,9.98
2018-02-18T17:00:49.269Z,10.77
2018-02-18T17:03:20.511Z,10.20
2018-02-18T17:05:50.881Z,10.15
2018-02-18T17:08:21.033Z,11.12
2018-02-18T17:10:52.225Z,12.27
2018-02-18T17:13:23.174Z,12.63
2018-02-18T17:15:55.706Z,13.32
2018-02-18T17:18:39.461Z,14.50
2018-02-18T17:21:09.751Z,13.18
2018-02-18T17:23:40.973Z,13.13
2018-02-18T17:26:11.984Z,11.18
2018-02-18T17:28:46.635Z,10.93
2018-02-18T17:31:18.976Z,10.90
2018-02-18T17:33:49.437Z,12.93
2018-02-18T17:36:19.985Z,11.25
2018-02-18T17:38:52.408Z,10.77
2018-02-18T17:41:22.707Z,10.23
2018-02-18T17:43:53.790Z,11.12
2018-02-18T17:46:24.734Z,12.18
2018-02-18T17:48:56.049Z,12.23
2018-02-18T17:51:26.292Z,12.02
2018-02-18T17:53:58.759Z,12.32
2018-02-18T17:56:29.593Z,10.60
2018-02-18T17:58:59.916Z,11.95
2018-02-18T18:01:42.989Z,11.57
2018-02-18T18:04:13.749Z,12.10
2018-02-18T18:06:44.126Z,11.73
2018-02-18T18:09:15.258Z,11.40
2018-02-18T18:11:46.608Z,13.35
2018-02-18T18:14:17.528Z,15.52
2018-02-18T18:16:47.673Z,14.65
2018-02-18T18:19:20.088Z,13.62
2018-02-18T18:21:50.989Z,15.55
2018-02-18T18:24:22.241Z,12.98
2018-02-18T18:26:52.563Z,12.37
2018-02-18T18:29:24.717Z,12.80
2018-02-18T18:31:57.591Z,13.07
2018-02-18T18:34:28.608Z,12.73
2018-02-18T18:37:00.424Z,11.63
2018-02-18T18:39:32.040Z,13.93
2018-02-18T18:42:18.699Z,12.75
2018-02-18T18:44:48.975Z,13.07
2018-02-18T18:47:20.249Z,13.55
2018-02-18T18:49:50.567Z,13.95
2018-02-18T18:52:21.530Z,15.15
2018-02-18T18:54:52.194Z,15.93
2018-02-18T18:57:23.561Z,14.70
2018-02-18T18:59:57.143Z,14.87
2018-02-18T19:02:29.402Z,13.57
2018-02-18T19:04:59.733Z,13.20
2018-02-18T19:07:30.090Z,13.70
2018-02-18T19:10:01.101Z,14.52
2018-02-18T19:12:33.117Z,13.45
2018-02-18T19:15:03.662Z,12.93
2018-02-18T19:17:33.956Z,13.55
2018-02-18T19:20:05.252Z,14.48
2018-02-18T19:22:37.295Z,15.15
2018-02-18T19:25:07.862Z,14.25
2018-02-18T19:27:39.858Z,14.35
2018-02-18T19:30:11.201Z,14.15
2018-02-18T19:32:42.188Z,13.98
2018-02-18T19:35:12.642Z,13.65
2018-02-18T19:37:42.896Z,14.27
2018-02-18T19:40:14.169Z,14.55
2018-02-18T19:42:44.713Z,16.98
2018-02-18T19:45:16.284Z,16.48
2018-02-18T19:47:47.746Z,16.05
2018-02-18T19:50:19.026Z,16.05
2018-02-18T19:52:50.265Z,17.48
2018-02-18T19:55:21.529Z,17.62
2018-02-18T19:57:54.157Z,17.40
2018-02-18T20:00:24.464Z,16.87
2018-02-18T20:02:54.964Z,17.77
2018-02-18T20:05:25.339Z,18.77
2018-02-18T20:07:55.937Z,19.95
2018-02-18T20:10:26.957Z,18.75
2018-02-18T20:12:57.167Z,19.98
2018-02-18T20:15:28.470Z,17.98
2018-02-18T20:17:58.636Z,16.92
2018-02-18T20:20:29.671Z,16.90
2018-02-18T20:23:01.126Z,16.75
2018-02-18T20:25:32.012Z,16.98
2018-02-18T20:28:03.006Z,17.67
2018-02-18T20:30:34.074Z,17.23
2018-02-18T20:33:04.348Z,17.27
2018-02-18T20:35:35.934Z,18.20
2018-02-18T20:38:06.992Z,17.42
2018-02-18T20:40:37.404Z,17.83
2018-02-18T20:43:08.911Z,17.50
2018-02-18T20:45:39.295Z,17.25
2018-02-18T20:48:09.458Z,18.40
2018-02-18T20:50:40.084Z,17.00
2018-02-18T20:54:29.438Z,17.80
2018-02-18T20:56:59.863Z,16.33
2018-02-18T20:59:30.884Z,17.37
2018-02-18T21:02:01.843Z,18.42
2018-02-18T21:04:32.642Z,18.25
2018-02-18T21:07:03.685Z,18.12
2018-02-18T21:09:34.689Z,19.73
2018-02-18T21:12:07.084Z,18.60
2018-02-18T21:14:37.252Z,17.60
2018-02-18T21:17:07.623Z,20.25
2018-02-18T21:19:37.872Z,17.87
2018-02-18T21:22:08.712Z,17.87
2018-02-18T21:24:39.940Z,17.45
2018-02-18T21:27:10.993Z,19.30
2018-02-18T21:29:41.927Z,19.65
2018-02-18T21:32:12.966Z,16.70
2018-02-18T21:34:48.169Z,18.20
2018-02-18T21:37:19.972Z,18.77
2018-02-18T21:39:50.811Z,19.02
2018-02-18T21:42:21.933Z,17.92
2018-02-18T21:44:52.121Z,18.15
2018-02-18T21:47:22.503Z,17.50
2018-02-18T21:49:53.616Z,17.83
2018-02-18T21:52:24.681Z,18.73
2018-02-18T21:54:55.733Z,18.00
2018-02-18T21:57:26.752Z,18.35
2018-02-18T21:59:58.063Z,19.58
2018-02-18T22:02:28.233Z,19.77
2018-02-18T22:04:59.289Z,19.73
2018-02-18T22:07:29.728Z,19.30
2018-02-18T22:09:59.852Z,18.17
2018-02-18T22:12:30.334Z,18.73
2018-02-18T22:15:00.683Z,18.17
2018-02-18T22:17:31.681Z,19.40
2018-02-18T22:20:02.258Z,21.25
2018-02-18T22:22:32.461Z,17.90
2018-02-18T22:25:03.432Z,18.27
2018-02-18T22:27:33.612Z,18.25
2018-02-18T22:30:04.035Z,18.75
2018-02-18T22:32:34.389Z,17.67
2018-02-18T22:35:05.823Z,18.08
2018-02-18T22:37:36.961Z,18.95
2018-02-18T22:40:07.995Z,17.85
2018-02-18T22:42:38.280Z,18.85
2018-02-18T22:45:08.876Z,18.85
2018-02-18T22:47:39.137Z,18.12
2018-02-18T22:50:10.760Z,17.58
2018-02-18T22:52:40.961Z,17.73
2018-02-18T22:55:11.908Z,17.35
2018-02-18T22:57:42.052Z,17.17
2018-02-18T23:00:15.393Z,17.62
2018-02-18T23:02:45.584Z,17.10
2018-02-18T23:05:20.398Z,16.62
2018-02-18T23:07:50.651Z,17.45
2018-02-18T23:10:21.253Z,17.02
2018-02-18T23:12:51.646Z,18.98
2018-02-18T23:15:23.717Z,16.55
2018-02-18T23:17:54.697Z,17.62
2018-02-18T23:20:26.038Z,16.98
2018-02-18T23:22:56.299Z,17.77
2018-02-18T23:25:26.648Z,18.20
2018-02-18T23:27:57.603Z,17.33
2018-02-18T23:30:29.712Z,17.23
2018-02-18T23:32:59.973Z,17.35
2018-02-18T23:35:31.117Z,18.23
2018-02-18T23:38:02.254Z,15.90
2018-02-18T23:40:33.029Z,17.17
2018-02-18T23:43:03.423Z,17.30
2018-02-18T23:45:35.056Z,16.20
2018-02-18T23:48:05.366Z,16.40
2018-02-18T23:50:35.594Z,17.00
2018-02-18T23:53:05.775Z,17.70
2018-02-18T23:55:36.115Z,16.65
2018-02-18T23:58:06.484Z,17.42
